Time;durP1;ratioP1;P1;durP2;ratioP2;P2;SDS_P1;SDS_P2;PMS_P1;PMS_P2;Temp;Humidity;BMP_temperature;BMP_pressure;BME280_temperature;BME280_humidity;BME280_pressure;Samples;Min_cycle;Max_cycle;Signal;HPM_P1;HPM_P2
2023/04/03 00:02:14;;;;;;;11.85;6.70;;;5.60;99.90;;;4.45;100.00;98070.94;5031947;28;20417;-74
2023/04/03 00:04:40;;;;;;;11.95;6.43;;;5.60;99.90;;;4.43;100.00;98070.34;5032040;28;20403;-74
2023/04/03 00:07:06;;;;;;;9.30;6.80;;;5.60;99.90;;;4.40;100.00;98070.72;5032016;28;20458;-75
2023/04/03 00:09:32;;;;;;;9.98;6.25;;;5.60;99.90;;;4.38;100.00;98073.53;5031904;28;20954;-74
2023/04/03 00:11:58;;;;;;;9.97;7.13;;;5.60;99.90;;;4.39;100.00;98069.09;5031795;28;20407;-74
2023/04/03 00:14:24;;;;;;;10.20;6.60;;;5.60;99.90;;;4.36;100.00;98072.13;5031603;28;20489;-74
2023/04/03 00:16:51;;;;;;;9.68;6.93;;;5.60;99.90;;;4.34;100.00;98071.50;5031798;28;20410;-74
2023/04/03 00:19:17;;;;;;;10.20;6.95;;;5.60;99.90;;;4.33;100.00;98070.69;5031664;28;21015;-74
2023/04/03 00:21:43;;;;;;;10.60;7.32;;;5.50;99.90;;;4.32;100.00;98069.06;5031506;28;20423;-74
2023/04/03 00:24:11;;;;;;;10.55;6.68;;;5.50;99.90;;;4.28;100.00;98065.25;5029890;28;21656;-74
2023/04/03 00:26:37;;;;;;;8.05;6.28;;;5.50;99.90;;;4.23;100.00;98067.59;5032282;28;20411;-74
2023/04/03 00:29:04;;;;;;;9.10;6.25;;;5.40;99.90;;;4.20;100.00;98068.81;5031448;28;20427;-74
2023/04/03 00:31:30;;;;;;;8.85;6.90;;;5.40;99.90;;;4.19;100.00;98069.81;5031524;28;20449;-74
2023/04/03 00:33:58;;;;;;;10.75;6.53;;;5.40;99.90;;;4.20;100.00;98068.81;5031547;28;20817;-74
2023/04/03 00:36:24;;;;;;;10.43;6.88;;;5.40;99.90;;;4.19;100.00;98069.00;5031075;28;20419;-74
2023/04/03 00:38:50;;;;;;;9.30;6.65;;;5.40;99.90;;;4.18;100.00;98070.00;5031343;28;20399;-75
2023/04/03 00:41:16;;;;;;;9.55;7.03;;;5.40;99.90;;;4.17;100.00;98069.19;5031080;28;20399;-75
2023/04/03 00:43:42;;;;;;;10.25;6.97;;;5.40;99.90;;;4.16;100.00;98066.78;5031318;28;20417;-75
2023/04/03 00:46:08;;;;;;;10.60;7.17;;;5.40;99.90;;;4.14;100.00;98066.97;5031283;28;20414;-75
2023/04/03 00:48:39;;;;;;;10.63;7.13;;;5.40;99.90;;;4.11;100.00;98066.53;5031054;28;20418;-75
2023/04/03 00:51:13;;;;;;;10.55;6.82;;;5.30;99.90;;;4.08;100.00;98059.06;5030915;28;20594;-75
2023/04/03 00:53:45;;;;;;;10.30;7.40;;;5.30;99.90;;;4.07;100.00;98060.06;5031155;28;20495;-73
2023/04/03 00:56:17;;;;;;;9.93;7.03;;;5.30;99.90;;;4.03;100.00;98057.03;5031131;28;20564;-75
2023/04/03 00:58:48;;;;;;;10.02;6.90;;;5.30;99.90;;;4.00;100.00;98067.88;5031218;28;20435;-75
2023/04/03 01:01:21;;;;;;;10.65;6.60;;;5.20;99.90;;;3.99;100.00;98061.03;5030995;28;20399;-75
2023/04/03 01:03:47;;;;;;;8.75;6.55;;;5.20;99.90;;;3.98;100.00;98063.84;5030980;28;20487;-75
2023/04/03 01:06:19;;;;;;;8.38;6.18;;;5.20;99.90;;;3.97;100.00;98065.66;5030950;28;20410;-75
2023/04/03 01:08:48;;;;;;;12.35;7.53;;;5.20;99.90;;;3.96;100.00;98058.00;5013213;28;20427;-75
2023/04/03 01:11:14;;;;;;;9.32;7.10;;;5.20;99.90;;;3.94;100.00;98058.19;5030742;28;20871;-75
2023/04/03 01:13:42;;;;;;;10.63;6.75;;;5.20;99.90;;;3.91;100.00;98058.56;5030888;28;20403;-76
2023/04/03 01:16:08;;;;;;;9.55;7.00;;;5.20;99.90;;;3.90;100.00;98056.97;5030855;28;20879;-75
2023/04/03 01:18:39;;;;;;;9.97;6.40;;;5.10;99.90;;;3.87;100.00;98054.72;5030688;28;20405;-75
2023/04/03 01:21:46;;;;;;;9.05;6.18;;;5.10;99.90;;;3.84;100.00;98058.50;5030488;28;20406;-75
2023/04/03 01:24:27;;;;;;;8.95;6.18;;;5.10;99.90;;;3.80;100.00;98057.28;5030842;28;20808;-75
2023/04/03 01:26:53;;;;;;;10.75;6.93;;;5.00;99.90;;;3.78;100.00;98061.09;5030684;28;20427;-75
2023/04/03 01:29:19;;;;;;;9.30;6.35;;;5.00;99.90;;;3.76;100.00;98066.50;5030538;28;20774;-75
2023/04/03 01:31:54;;;;;;;9.35;6.80;;;5.00;99.90;;;3.76;100.00;98060.50;5030508;28;20400;-75
2023/04/03 01:34:21;;;;;;;8.60;6.68;;;5.00;99.90;;;3.74;100.00;98068.53;5012723;28;20451;-75
2023/04/03 01:36:47;;;;;;;11.10;7.00;;;5.00;99.90;;;3.75;100.00;98061.50;5030579;28;20765;-75
2023/04/03 01:39:13;;;;;;;8.43;6.40;;;5.00;99.90;;;3.74;100.00;98058.06;5030698;28;20434;-75
2023/04/03 01:41:39;;;;;;;11.57;7.22;;;5.00;99.90;;;3.75;100.00;98071.97;5030318;28;20415;-75
2023/04/03 01:44:05;;;;;;;12.38;7.63;;;5.00;99.90;;;3.77;100.00;98064.72;5030578;28;20406;-75
2023/04/03 01:46:32;;;;;;;14.82;8.05;;;5.00;99.90;;;3.78;100.00;98067.13;5030331;28;20490;-75
2023/04/03 01:48:59;;;;;;;11.15;6.93;;;5.00;99.90;;;3.77;100.00;98069.94;5030411;28;20471;-75
2023/04/03 01:51:25;;;;;;;11.52;7.55;;;5.00;99.90;;;3.75;100.00;98066.72;5029147;28;20452;-75
2023/04/03 01:53:51;;;;;;;9.43;6.97;;;5.00;99.90;;;3.74;100.00;98067.72;5030358;28;20442;-75
2023/04/03 01:56:17;;;;;;;10.48;7.20;;;5.00;99.90;;;3.74;100.00;98067.72;5030426;28;20395;-75
2023/04/03 01:58:43;;;;;;;9.20;6.65;;;5.00;99.90;;;3.71;100.00;98068.91;5030047;28;20415;-75
2023/04/03 02:01:09;;;;;;;10.52;7.40;;;4.90;99.90;;;3.69;100.00;98065.66;5029978;28;20415;-75
2023/04/03 02:03:35;;;;;;;10.90;7.47;;;4.90;99.90;;;3.69;100.00;98062.22;5030443;28;20812;-75
2023/04/03 02:06:03;;;;;;;10.38;7.53;;;4.90;99.90;;;3.67;100.00;98064.25;5030391;28;20900;-75
2023/04/03 02:08:29;;;;;;;8.82;6.80;;;4.90;99.90;;;3.66;100.00;98070.47;5029953;28;20414;-75
2023/04/03 02:10:55;;;;;;;10.48;7.40;;;4.90;99.90;;;3.66;100.00;98067.88;5030139;28;20434;-75
2023/04/03 02:13:21;;;;;;;11.77;7.60;;;4.90;99.90;;;3.63;100.00;98071.66;5030438;28;20797;-75
2023/04/03 02:15:47;;;;;;;11.97;7.90;;;4.90;99.90;;;3.62;100.00;98067.41;5030226;28;20410;-75
2023/04/03 02:18:14;;;;;;;9.15;7.13;;;4.90;99.90;;;3.63;100.00;98066.44;5030145;28;20411;-75
2023/04/03 02:20:40;;;;;;;12.77;7.97;;;4.90;99.90;;;3.63;100.00;98065.63;5031445;28;20403;-75
2023/04/03 02:23:07;;;;;;;9.77;7.22;;;4.90;99.90;;;3.61;100.00;98067.63;5034030;28;20410;-75
2023/04/03 02:25:34;;;;;;;8.77;7.07;;;4.80;99.90;;;3.62;100.00;98064.00;5033838;28;20410;-75
2023/04/03 02:27:59;;;;;;;10.48;7.63;;;4.80;99.90;;;3.63;100.00;98073.47;5033904;28;20464;-75
2023/04/03 02:30:26;;;;;;;11.25;7.40;;;4.90;99.90;;;3.63;100.00;98073.47;5033464;28;20821;-75
2023/04/03 02:32:52;;;;;;;10.45;7.45;;;4.90;99.90;;;3.64;100.00;98075.91;5032142;28;20411;-75
2023/04/03 02:35:18;;;;;;;16.40;8.40;;;4.90;99.90;;;3.63;100.00;98074.28;5033773;28;20908;-75
2023/04/03 02:37:44;;;;;;;10.57;7.55;;;4.90;99.90;;;3.63;100.00;98076.09;5033855;28;20399;-75
2023/04/03 02:40:12;;;;;;;11.45;7.10;;;4.80;99.90;;;3.63;100.00;98078.69;5033537;28;20456;-76
2023/04/03 02:42:38;;;;;;;13.45;8.82;;;4.80;99.90;;;3.65;100.00;98071.47;5033565;28;20398;-75
2023/04/03 02:45:05;;;;;;;10.90;7.20;;;4.90;99.90;;;3.64;100.00;98075.09;5032469;28;20422;-75
2023/04/03 02:47:31;;;;;;;10.95;7.60;;;4.90;99.90;;;3.63;100.00;98068.22;5033463;28;20421;-75
2023/04/03 02:49:57;;;;;;;11.73;7.85;;;4.90;99.90;;;3.66;100.00;98075.72;5033332;28;20490;-75
2023/04/03 02:52:23;;;;;;;13.43;7.60;;;4.90;99.90;;;3.64;100.00;98075.09;5033238;28;20911;-75
2023/04/03 02:54:49;;;;;;;10.05;6.97;;;4.90;99.90;;;3.64;100.00;98078.53;5033444;28;20406;-75
2023/04/03 02:57:19;;;;;;;8.85;6.95;;;4.90;99.90;;;3.65;100.00;98069.66;5033540;28;20403;-75
2023/04/03 02:59:45;;;;;;;11.10;7.65;;;4.90;99.90;;;3.66;100.00;98079.16;5015894;28;20734;-75
2023/04/03 03:02:11;;;;;;;10.23;7.72;;;4.90;99.90;;;3.67;100.00;98079.97;5036976;28;20467;-75
2023/04/03 03:04:37;;;;;;;12.30;7.80;;;4.90;99.90;;;3.67;100.00;98080.78;5037095;28;20407;-75
2023/04/03 03:07:03;;;;;;;10.38;7.40;;;4.90;99.90;;;3.67;100.00;98072.91;5035386;28;20418;-75
2023/04/03 03:09:30;;;;;;;12.43;7.70;;;4.90;99.90;;;3.70;100.00;98079.56;5032976;28;20416;-75
2023/04/03 03:11:56;;;;;;;9.25;6.97;;;4.90;99.90;;;3.69;100.00;98075.31;5032842;28;20419;-75
2023/04/03 03:14:23;;;;;;;9.73;7.38;;;4.90;99.90;;;3.68;100.00;98077.16;5033148;28;20957;-75
2023/04/03 03:16:49;;;;;;;12.20;7.32;;;4.90;99.90;;;3.68;100.00;98074.53;5033053;28;20403;-75
2023/04/03 03:19:16;;;;;;;9.25;6.97;;;4.90;99.90;;;3.68;100.00;98071.13;5033017;28;20407;-76
2023/04/03 03:21:42;;;;;;;9.23;6.77;;;4.90;99.90;;;3.68;100.00;98064.06;5032823;28;20503;-76
2023/04/03 03:24:08;;;;;;;9.55;7.22;;;4.90;99.90;;;3.68;100.00;98061.44;5033020;28;20919;-75
2023/04/03 03:26:34;;;;;;;11.82;7.60;;;4.90;99.90;;;3.67;100.00;98069.50;5032710;28;20501;-75
2023/04/03 03:29:01;;;;;;;10.32;7.18;;;4.90;99.90;;;3.66;100.00;98062.63;5032779;28;20498;-75
2023/04/03 03:31:28;;;;;;;11.15;7.28;;;4.80;99.90;;;3.66;100.00;98067.88;5032144;28;20485;-75
2023/04/03 03:33:54;;;;;;;9.95;7.15;;;4.90;99.90;;;3.65;100.00;98061.81;5032332;28;20410;-75
2023/04/03 03:36:20;;;;;;;8.60;6.88;;;4.90;99.90;;;3.65;100.00;98064.44;5032753;28;20506;-75
2023/04/03 03:38:46;;;;;;;9.60;6.90;;;4.90;99.90;;;3.65;100.00;98059.19;5031275;28;20421;-75
2023/04/03 03:41:12;;;;;;;12.10;7.30;;;4.90;99.90;;;3.61;100.00;98062.41;5032376;28;20409;-75
2023/04/03 03:43:38;;;;;;;10.70;6.63;;;4.80;99.90;;;3.63;100.00;98060.38;5032669;28;20498;-75
2023/04/03 03:46:04;;;;;;;11.85;6.90;;;4.80;99.90;;;3.61;100.00;98071.03;5032394;28;20403;-75
2023/04/03 03:48:31;;;;;;;10.07;6.95;;;4.80;99.90;;;3.60;100.00;98060.78;5031861;28;20749;-75
2023/04/03 03:50:57;;;;;;;8.63;6.55;;;4.80;99.90;;;3.59;100.00;98062.59;5027044;28;20403;-75
2023/04/03 03:53:23;;;;;;;10.88;7.70;;;4.80;99.90;;;3.61;100.00;98057.16;5030584;28;20807;-75
2023/04/03 03:55:49;;;;;;;9.45;6.82;;;4.80;99.90;;;3.61;100.00;98062.41;5012811;28;20405;-75
2023/04/03 03:58:15;;;;;;;9.83;7.03;;;4.80;99.90;;;3.58;100.00;98063.56;5012539;28;20400;-75
2023/04/03 04:00:41;;;;;;;9.68;7.15;;;4.80;99.90;;;3.60;100.00;98071.25;5012141;28;20404;-75
2023/04/03 04:03:06;;;;;;;10.63;6.40;;;4.80;99.90;;;3.59;100.00;98065.19;5012174;28;20436;-75
2023/04/03 04:05:34;;;;;;;9.50;6.60;;;4.80;99.90;;;3.58;100.00;98068.00;5027708;28;20416;-75
2023/04/03 04:08:00;;;;;;;9.27;6.43;;;4.80;99.90;;;3.56;100.00;98067.38;5012387;28;20446;-75
2023/04/03 04:10:26;;;;;;;9.43;6.33;;;4.80;99.90;;;3.57;100.00;98064.56;5012523;28;20774;-75
2023/04/03 04:12:52;;;;;;;10.77;6.72;;;4.80;99.90;;;3.57;100.00;98066.38;5010593;28;20890;-76
2023/04/03 04:15:18;;;;;;;11.15;7.10;;;4.80;99.90;;;3.56;100.00;98062.94;5022808;28;20494;-75
2023/04/03 04:17:45;;;;;;;9.65;6.45;;;4.80;99.90;;;3.56;100.00;98070.00;5021292;28;20408;-76
2023/04/03 04:20:11;;;;;;;11.00;6.93;;;4.80;99.90;;;3.56;100.00;98062.13;5014325;28;20416;-75
2023/04/03 04:22:39;;;;;;;10.07;6.33;;;4.80;99.90;;;3.56;100.00;98067.38;5011942;28;20440;-75
2023/04/03 04:25:06;;;;;;;9.52;6.75;;;4.80;99.90;;;3.55;100.00;98065.75;5012397;28;20504;-75
2023/04/03 04:27:32;;;;;;;10.45;7.10;;;4.80;99.90;;;3.57;100.00;98063.75;5011804;28;20454;-75
2023/04/03 04:29:58;;;;;;;10.73;6.85;;;4.80;99.90;;;3.57;100.00;98071.63;5011791;28;20417;-75
2023/04/03 04:32:24;;;;;;;8.27;6.55;;;4.80;99.90;;;3.56;100.00;98060.34;5029367;28;20417;-75
2023/04/03 04:34:50;;;;;;;9.60;6.70;;;4.80;99.90;;;3.56;100.00;98062.94;5030145;28;20403;-75
2023/04/03 04:37:16;;;;;;;11.00;7.15;;;4.80;99.90;;;3.56;100.00;98072.59;5031489;28;20439;-75
2023/04/03 04:39:45;;;;;;;10.05;6.90;;;4.80;99.90;;;3.58;100.00;98070.63;5031322;28;20395;-76
2023/04/03 04:42:12;;;;;;;9.85;6.45;;;4.80;99.90;;;3.55;100.00;98063.94;5029872;28;20449;-75
2023/04/03 04:44:39;;;;;;;8.45;6.60;;;4.80;99.90;;;3.55;100.00;98069.19;5029408;28;20800;-75
2023/04/03 04:47:05;;;;;;;10.55;7.20;;;4.80;99.90;;;3.57;100.00;98072.44;5033935;28;20448;-75
2023/04/03 04:49:31;;;;;;;13.93;7.53;;;4.80;99.90;;;3.56;100.00;98064.75;5038316;28;20820;-75
2023/04/03 04:51:57;;;;;;;10.02;6.72;;;4.80;99.90;;;3.55;100.00;98071.00;5028074;28;20503;-75
2023/04/03 04:54:23;;;;;;;8.65;6.47;;;4.80;99.90;;;3.53;100.00;98065.97;5020470;28;20458;-75
2023/04/03 04:56:51;;;;;;;9.25;6.35;;;4.70;99.90;;;3.50;100.00;98063.72;5025033;28;20480;-75
2023/04/03 04:59:17;;;;;;;8.13;6.53;;;4.70;99.90;;;3.47;100.00;98066.69;5037576;28;20476;-76
2023/04/03 05:01:43;;;;;;;10.50;6.68;;;4.70;99.90;;;3.44;100.00;98075.75;5030685;28;20402;-75
2023/04/03 05:04:09;;;;;;;13.40;7.70;;;4.70;99.90;;;3.41;100.00;98076.13;5036853;28;20427;-75
2023/04/03 05:06:35;;;;;;;7.72;6.22;;;4.60;99.90;;;3.40;100.00;98079.72;5050681;28;20885;-75
2023/04/03 05:09:01;;;;;;;8.87;6.27;;;4.60;99.90;;;3.40;100.00;98079.72;5049852;28;20414;-75
2023/04/03 05:11:27;;;;;;;10.45;6.65;;;4.60;99.90;;;3.42;100.00;98082.16;5049388;28;20959;-75
2023/04/03 05:13:54;;;;;;;9.07;6.53;;;4.60;99.90;;;3.44;100.00;98083.59;5032626;28;20492;-76
2023/04/03 05:16:20;;;;;;;10.30;6.60;;;4.60;99.90;;;3.47;100.00;98087.63;5050741;28;20442;-75
2023/04/03 05:18:46;;;;;;;9.50;7.07;;;4.70;99.90;;;3.47;100.00;98080.59;5050775;28;20405;-75
2023/04/03 05:21:12;;;;;;;10.20;6.22;;;4.70;99.90;;;3.50;100.00;98090.69;5050330;28;20488;-75
2023/04/03 05:23:39;;;;;;;8.30;6.07;;;4.70;99.90;;;3.49;100.00;98086.47;5033449;28;20432;-75
2023/04/03 05:26:05;;;;;;;8.65;5.85;;;4.70;99.90;;;3.49;100.00;98091.69;5011142;28;20474;-75
2023/04/03 05:28:31;;;;;;;10.57;6.10;;;4.70;99.90;;;3.51;100.00;98094.13;5010848;28;20412;-75
2023/04/03 05:30:59;;;;;;;8.90;6.30;;;4.70;99.90;;;3.50;100.00;98093.31;5010596;28;20427;-75
2023/04/03 05:33:26;;;;;;;8.57;5.70;;;4.70;99.90;;;3.51;100.00;98101.97;5010741;28;20411;-75
2023/04/03 05:35:52;;;;;;;10.98;6.50;;;4.70;99.90;;;3.52;100.00;98100.16;5044320;28;20476;-75
2023/04/03 05:38:18;;;;;;;8.30;6.10;;;4.70;99.90;;;3.54;100.00;98098.16;5050422;28;20805;-75
2023/04/03 05:40:44;;;;;;;8.35;5.78;;;4.70;99.90;;;3.57;100.00;98100.41;5048677;28;20959;-75
2023/04/03 05:43:10;;;;;;;8.13;6.07;;;4.80;99.90;;;3.57;100.00;98103.03;5049935;28;20409;-75
2023/04/03 05:45:36;;;;;;;7.68;6.00;;;4.70;99.90;;;3.59;100.00;98103.66;5050278;28;20431;-75
2023/04/03 05:48:05;;;;;;;7.88;5.95;;;4.80;99.90;;;3.60;100.00;98110.50;5050281;28;20408;-75
2023/04/03 05:50:31;;;;;;;9.93;6.33;;;4.80;99.90;;;3.65;100.00;98105.50;5049562;28;20462;-75
2023/04/03 05:52:58;;;;;;;11.13;6.47;;;4.80;99.90;;;3.67;100.00;98116.63;5050220;28;20401;-75
2023/04/03 05:55:25;;;;;;;12.25;6.65;;;4.90;99.90;;;3.66;100.00;98105.31;5051336;28;20408;-75
2023/04/03 05:57:50;;;;;;;7.85;6.28;;;4.90;99.90;;;3.67;100.00;98114.00;5054213;28;20446;-75
2023/04/03 06:00:18;;;;;;;9.73;5.88;;;4.80;99.90;;;3.67;100.00;98116.63;5054067;28;20401;-75
2023/04/03 06:02:44;;;;;;;7.30;5.75;;;4.80;99.90;;;3.66;100.00;98112.38;5053660;28;20441;-75
2023/04/03 06:05:12;;;;;;;10.80;6.53;;;4.80;99.90;;;3.66;100.00;98110.56;5036148;28;20841;-75
2023/04/03 06:07:38;;;;;;;7.80;5.63;;;4.80;99.90;;;3.67;100.00;98111.38;5054195;28;20914;-75
2023/04/03 06:10:06;;;;;;;9.50;6.60;;;4.90;99.90;;;3.72;100.00;98120.28;5053927;28;20483;-75
2023/04/03 06:12:33;;;;;;;8.77;6.10;;;4.90;99.90;;;3.75;100.00;98121.72;5053916;28;21002;-75
2023/04/03 06:14:59;;;;;;;8.32;5.75;;;4.90;99.90;;;3.74;100.00;98128.75;5053926;28;20457;-75
2023/04/03 06:17:26;;;;;;;8.13;5.93;;;4.90;99.90;;;3.79;100.00;98126.38;5036345;28;20887;-75
2023/04/03 06:19:52;;;;;;;8.07;5.80;;;5.00;99.90;;;3.84;100.00;98123.97;5036044;28;20516;-75
2023/04/03 06:22:21;;;;;;;7.13;5.67;;;5.00;99.90;;;3.87;100.00;98126.22;5056056;28;20466;-75
2023/04/03 06:24:47;;;;;;;8.43;5.38;;;5.00;99.90;;;3.90;100.00;98130.28;5056015;28;20413;-75
2023/04/03 06:27:13;;;;;;;7.10;5.37;;;5.10;99.90;;;3.96;100.00;98128.72;5055496;28;20767;-75
2023/04/03 06:29:39;;;;;;;7.85;6.05;;;5.10;99.90;;;3.98;100.00;98126.72;5053419;28;20413;-75
2023/04/03 06:32:05;;;;;;;7.47;5.50;;;5.10;99.90;;;4.00;100.00;98135.19;5053439;28;20404;-75
2023/04/03 06:34:31;;;;;;;9.00;5.10;;;5.20;99.90;;;4.06;100.00;98137.84;5053622;28;20401;-75
2023/04/03 06:36:57;;;;;;;8.30;4.97;;;5.20;99.90;;;4.09;100.00;98131.41;5053625;28;20886;-75
2023/04/03 06:39:25;;;;;;;10.13;5.60;;;5.20;99.90;;;4.14;100.00;98126.41;5053376;28;20420;-76
2023/04/03 06:41:51;;;;;;;6.82;4.72;;;5.30;99.90;;;4.20;100.00;98134.34;5053165;28;20403;-75
2023/04/03 06:44:17;;;;;;;9.05;5.80;;;5.30;99.90;;;4.23;100.00;98135.75;5053263;28;20402;-75
2023/04/03 06:46:46;;;;;;;6.80;5.05;;;5.40;99.90;;;4.29;100.00;98127.91;5053521;28;20397;-75
2023/04/03 06:49:12;;;;;;;6.45;4.82;;;5.40;99.90;;;4.37;100.00;98132.19;5053281;28;20417;-76
2023/04/03 06:51:38;;;;;;;7.10;5.03;;;5.50;99.90;;;4.45;100.00;98136.47;5053141;28;20801;-75
2023/04/03 06:54:05;;;;;;;6.90;4.95;;;5.60;99.90;;;4.49;100.00;98137.72;5053495;28;20408;-75
2023/04/03 06:56:33;;;;;;;9.07;4.93;;;5.60;99.90;;;4.56;100.00;98138.56;5053337;28;20405;-75
2023/04/03 06:58:59;;;;;;;10.57;5.50;;;5.70;99.90;;;4.62;100.00;98150.88;5035241;28;20883;-75
2023/04/03 07:01:27;;;;;;;9.35;5.15;;;5.70;99.90;;;4.66;100.00;98141.66;5052120;28;20904;-75
2023/04/03 07:03:53;;;;;;;8.00;4.93;;;5.80;99.90;;;4.65;100.00;98145.28;5053342;28;20443;-75
2023/04/03 07:06:20;;;;;;;8.82;5.03;;;5.80;99.90;;;4.69;100.00;98151.72;5034821;28;20968;-75
2023/04/03 07:08:47;;;;;;;8.52;6.25;;;5.80;99.90;;;4.70;100.00;98153.34;5052368;28;20401;-75
2023/04/03 07:11:14;;;;;;;8.02;5.55;;;5.80;99.90;;;4.73;100.00;98152.97;5052700;28;20409;-75
2023/04/03 07:13:42;;;;;;;6.50;4.82;;;5.80;99.90;;;4.78;100.00;98149.75;5052716;28;20762;-75
2023/04/03 07:16:09;;;;;;;9.37;5.53;;;5.90;99.90;;;4.78;100.00;98153.19;5052905;28;20405;-76
2023/04/03 07:18:35;;;;;;;8.88;5.78;;;5.90;99.90;;;4.79;100.00;98157.44;5052761;28;20401;-75
2023/04/03 07:21:02;;;;;;;7.28;5.07;;;5.90;99.90;;;4.81;100.00;98163.28;5052335;28;20413;-75
2023/04/03 07:23:28;;;;;;;8.38;5.15;;;5.90;99.90;;;4.87;100.00;98166.94;5052700;28;20401;-75
2023/04/03 07:25:55;;;;;;;7.80;5.40;;;5.90;99.90;;;4.94;100.00;98159.91;5041063;28;20769;-76
2023/04/03 07:28:22;;;;;;;7.97;4.90;;;6.00;99.90;;;5.00;100.00;98174.88;5035361;28;20419;-74
2023/04/03 07:30:53;;;;;;;10.73;5.28;;;6.10;99.90;;;5.07;100.00;98160.75;5038575;28;20441;-74
2023/04/03 07:33:22;;;;;;;7.05;5.03;;;6.20;99.90;;;5.12;100.00;98162.78;5010400;28;20409;-74
2023/04/03 07:35:48;;;;;;;7.90;4.80;;;6.20;99.90;;;5.10;100.00;98171.88;5026825;28;20921;-74
2023/04/03 07:38:15;;;;;;;7.10;4.93;;;6.20;99.90;;;5.15;100.00;98166.84;5029524;28;20877;-74
2023/04/03 07:40:46;;;;;;;9.75;5.13;;;6.20;99.90;;;5.30;100.00;98167.50;5032035;28;20906;-74
2023/04/03 07:43:12;;;;;;;9.30;5.20;;;6.30;99.90;;;5.37;100.00;98166.50;5021515;28;20413;-74
2023/04/03 07:45:38;;;;;;;6.78;5.43;;;6.50;99.90;;;5.47;100.00;98163.50;5026852;28;20435;-74
2023/04/03 07:48:06;;;;;;;7.88;5.00;;;6.60;99.90;;;5.61;100.00;98174.84;5035000;28;20398;-74
2023/04/03 07:50:32;;;;;;;7.20;5.15;;;6.60;99.90;;;5.67;100.00;98176.66;5004314;28;20747;-74
2023/04/03 07:52:58;;;;;;;5.97;4.90;;;6.70;99.90;;;5.77;100.00;98172.63;5027150;28;20525;-76
2023/04/03 07:55:24;;;;;;;8.45;4.90;;;6.80;99.90;;;5.87;100.00;98182.72;5043264;28;20740;-75
2023/04/03 07:57:50;;;;;;;7.95;5.20;;;6.90;99.90;;;5.99;100.00;98183.78;5037346;28;20482;-75
2023/04/03 08:00:17;;;;;;;8.07;4.93;;;7.00;99.90;;;6.05;100.00;98180.34;5033547;28;20403;-75
2023/04/03 08:02:44;;;;;;;9.32;5.00;;;7.10;99.90;;;6.06;100.00;98179.34;5031194;28;20413;-75
2023/04/03 08:05:12;;;;;;;9.50;4.88;;;7.10;99.90;;;6.05;100.00;98176.91;5036017;28;20407;-75
2023/04/03 08:07:38;;;;;;;6.93;4.70;;;7.10;99.90;;;6.08;100.00;98192.28;5031622;28;20395;-75
2023/04/03 08:10:05;;;;;;;8.10;5.40;;;7.10;99.90;;;6.14;100.00;98180.97;5031076;28;20454;-74
2023/04/03 08:12:32;;;;;;;7.37;5.03;;;7.20;99.90;;;6.23;100.00;98190.25;5031829;28;20925;-75
2023/04/03 08:15:01;;;;;;;7.18;4.80;;;7.20;99.90;;;6.26;100.00;98192.47;5031916;28;20916;-74
2023/04/03 08:17:27;;;;;;;7.15;4.78;;;7.30;99.90;;;6.35;100.00;98195.69;5031038;28;20749;-75
2023/04/03 08:19:53;;;;;;;7.77;4.60;;;7.30;99.90;;;6.36;100.00;98189.44;5032163;28;20391;-74
2023/04/03 08:22:20;;;;;;;8.02;4.47;;;7.40;99.90;;;6.41;100.00;98193.06;5030771;28;20828;-75
2023/04/03 08:24:47;;;;;;;7.63;4.72;;;7.40;99.90;;;6.40;100.00;98198.50;5031815;28;20417;-74
2023/04/03 08:27:14;;;;;;;5.95;4.38;;;7.40;99.90;;;6.47;100.00;98191.41;5034510;28;20407;-74
2023/04/03 08:29:40;;;;;;;6.75;4.30;;;7.40;99.90;;;6.55;100.00;98192.03;5030368;28;20415;-75
2023/04/03 08:32:06;;;;;;;8.73;4.50;;;7.60;99.90;;;6.66;100.00;98189.78;5031107;28;20435;-74
2023/04/03 08:34:34;;;;;;;9.35;4.78;;;7.60;99.90;;;6.71;100.00;98187.34;5010033;28;20417;-74
2023/04/03 08:37:00;;;;;;;7.22;4.35;;;7.70;99.90;;;6.69;100.00;98195.41;5036563;28;20484;-75
2023/04/03 08:39:29;;;;;;;6.53;4.18;;;7.70;99.90;;;6.69;100.00;98187.53;5039532;28;20478;-74
2023/04/03 08:41:59;;;;;;;8.60;4.53;;;7.70;99.90;;;6.77;100.00;98192.56;5028069;28;20887;-75
2023/04/03 08:44:34;;;;;;;7.45;4.10;;;7.80;99.90;;;6.71;100.00;98189.97;5035827;28;20401;-75
2023/04/03 08:47:18;;;;;;;8.23;4.57;;;7.70;99.90;;;6.71;100.00;98193.41;5024870;28;20758;-74
2023/04/03 08:49:48;;;;;;;8.87;4.60;;;7.70;99.90;;;6.75;100.00;98199.88;5030939;28;20413;-76
2023/04/03 08:52:19;;;;;;;4.53;3.90;;;7.70;99.90;;;6.81;100.00;98187.72;5031798;28;20884;-74
2023/04/03 08:54:53;;;;;;;9.93;4.63;;;7.80;99.90;;;6.81;100.00;98185.91;5041500;28;21038;-74
2023/04/03 08:57:28;;;;;;;6.50;4.38;;;7.80;99.90;;;6.88;100.00;98189.31;5036395;28;20435;-74
2023/04/03 08:59:54;;;;;;;9.20;4.88;;;7.90;99.90;;;7.03;100.00;98193.50;5043794;28;20398;-74
2023/04/03 09:02:33;;;;;;;8.87;4.70;;;8.00;99.90;;;7.18;100.00;98201.97;5044716;28;20429;-74
2023/04/03 09:05:01;;;;;;;8.68;4.20;;;8.10;99.90;;;7.24;100.00;98206.38;5021804;28;20766;-74
2023/04/03 09:07:41;;;;;;;6.90;4.18;;;8.20;99.90;;;7.38;100.00;98200.03;5037200;28;20478;-74
2023/04/03 09:10:13;;;;;;;8.38;4.00;;;8.40;99.90;;;7.52;100.00;98200.78;5032871;28;20422;-75
2023/04/03 09:12:44;;;;;;;6.97;4.10;;;8.50;99.90;;;7.46;100.00;98198.97;5038129;28;20394;-74
2023/04/03 09:15:18;;;;;;;6.15;3.92;;;8.40;99.90;;;7.49;100.00;98211.75;5033389;28;20461;-74
2023/04/03 09:17:59;;;;;;;9.82;4.00;;;8.40;99.90;;;7.44;100.00;98201.03;5030589;28;20423;-74
2023/04/03 09:20:37;;;;;;;7.50;4.07;;;8.50;99.90;;;7.44;100.00;98198.41;5031467;28;20409;-75
2023/04/03 09:23:15;;;;;;;6.30;3.57;;;8.50;99.90;;;7.49;100.00;98202.00;5030532;28;20518;-75
2023/04/03 09:25:43;;;;;;;6.28;3.80;;;8.40;99.90;;;7.56;100.00;98202.78;5028646;28;20481;-75
2023/04/03 09:28:10;;;;;;;4.55;3.47;;;8.50;99.90;;;7.69;100.00;98204.53;5035143;28;20454;-74
2023/04/03 09:30:37;;;;;;;8.52;3.85;;;8.60;99.90;;;7.81;100.00;98202.03;5023605;28;20920;-74
2023/04/03 09:33:05;;;;;;;6.60;4.30;;;8.70;99.90;;;7.88;100.00;98197.53;5030905;28;20438;-76
2023/04/03 09:35:33;;;;;;;6.53;3.80;;;8.80;99.90;;;7.88;100.00;98198.34;5031573;28;20400;-74
2023/04/03 09:38:01;;;;;;;9.88;3.97;;;8.80;99.90;;;7.87;100.00;98195.91;5028913;28;20838;-74
2023/04/03 09:40:38;;;;;;;10.85;3.67;;;8.80;99.90;;;7.83;100.00;98202.59;5026816;28;20407;-75
2023/04/03 09:43:26;;;;;;;6.93;3.78;;;8.80;99.90;;;7.64;100.00;98201.72;5013719;28;20395;-74
2023/04/03 09:45:53;;;;;;;4.75;3.30;;;8.60;99.90;;;7.57;100.00;98200.97;5028243;28;20868;-75
2023/04/03 09:48:23;;;;;;;8.25;4.07;;;8.60;99.90;;;7.54;100.00;98204.81;5029548;28;20403;-74
2023/04/03 09:50:59;;;;;;;4.95;3.42;;;8.60;99.90;;;7.42;100.00;98200.44;5020556;28;20775;-74
2023/04/03 09:53:37;;;;;;;6.15;3.67;;;8.40;99.90;;;7.36;100.00;98200.28;5023625;28;20391;-74
2023/04/03 09:56:21;;;;;;;5.55;3.33;;;8.40;99.90;;;7.32;100.00;98206.97;5025797;28;20407;-74
2023/04/03 09:58:51;;;;;;;7.70;4.22;;;8.30;99.90;;;7.26;100.00;98199.91;5029652;28;20407;-75
2023/04/03 10:01:26;;;;;;;5.35;3.88;;;8.20;99.90;;;7.22;100.00;98195.25;5040270;28;20489;-76
2023/04/03 10:04:10;;;;;;;7.45;4.03;;;8.20;99.90;;;7.11;100.00;98190.66;5010295;28;20391;-75
2023/04/03 10:06:40;;;;;;;6.35;3.83;;;8.10;99.90;;;7.00;100.00;98189.47;5028259;28;20387;-74
2023/04/03 10:09:18;;;;;;;6.85;4.00;;;8.00;99.90;;;6.86;100.00;98187.91;5030849;28;20456;-74
2023/04/03 10:12:01;;;;;;;6.75;3.67;;;7.90;99.90;;;6.78;100.00;98183.66;5034416;28;20761;-74
2023/04/03 10:14:29;;;;;;;5.97;3.78;;;7.80;99.90;;;6.72;100.00;98183.69;5033635;28;20401;-73
2023/04/03 10:17:18;;;;;;;6.07;3.70;;;7.80;99.90;;;6.71;100.00;98177.63;5030904;28;20450;-74
2023/04/03 10:19:51;;;;;;;6.28;3.50;;;7.70;99.90;;;6.75;100.00;98180.66;5035639;28;20395;-74
2023/04/03 10:22:26;;;;;;;6.80;3.70;;;7.70;99.90;;;6.78;100.00;98183.66;5035344;28;20400;-73
2023/04/03 10:25:08;;;;;;;5.95;3.65;;;7.80;99.90;;;6.73;100.00;98180.84;5032361;28;20721;-74
2023/04/03 10:27:47;;;;;;;6.00;3.45;;;7.80;99.90;;;6.79;100.00;98182.66;5031862;28;20395;-74